sensor_id;sensor_type;location;lat;lon;timestamp;temperature;humidity
24470;DHT22;12635;50.852;5.676;2023-04-15T00:00:07;5.30;99.90
24470;DHT22;12635;50.852;5.676;2023-04-15T00:02:35;5.20;99.90
24470;DHT22;12635;50.852;5.676;2023-04-15T00:05:03;5.20;99.90
24470;DHT22;12635;50.852;5.676;2023-04-15T00:07:30;5.00;99.90
24470;DHT22;12635;50.852;5.676;2023-04-15T00:09:57;5.10;99.90
24470;DHT22;12635;50.852;5.676;2023-04-15T00:12:24;5.00;99.90
24470;DHT22;12635;50.852;5.676;2023-04-15T00:14:51;4.70;99.90
24470;DHT22;12635;50.852;5.676;2023-04-15T00:17:20;4.60;99.90
24470;DHT22;12635;50.852;5.676;2023-04-15T00:19:47;4.50;99.90
24470;DHT22;12635;50.852;5.676;2023-04-15T00:22:14;4.40;99.90
24470;DHT22;12635;50.852;5.676;2023-04-15T00:24:41;4.30;99.90
24470;DHT22;12635;50.852;5.676;2023-04-15T00:27:08;4.40;99.90
24470;DHT22;12635;50.852;5.676;2023-04-15T00:29:35;4.30;99.90
24470;DHT22;12635;50.852;5.676;2023-04-15T00:32:02;4.30;99.90
24470;DHT22;12635;50.852;5.676;2023-04-15T00:34:30;4.40;99.90
24470;DHT22;12635;50.852;5.676;2023-04-15T00:36:57;4.50;99.90
24470;DHT22;12635;50.852;5.676;2023-04-15T00:39:25;4.50;99.90
24470;DHT22;12635;50.852;5.676;2023-04-15T00:41:52;4.40;99.90
24470;DHT22;12635;50.852;5.676;2023-04-15T00:44:20;4.50;99.90
24470;DHT22;12635;50.852;5.676;2023-04-15T00:46:46;4.70;99.90
24470;DHT22;12635;50.852;5.676;2023-04-15T00:49:14;4.90;99.90
24470;DHT22;12635;50.852;5.676;2023-04-15T00:51:43;4.90;99.90
24470;DHT22;12635;50.852;5.676;2023-04-15T00:54:10;4.90;99.90
24470;DHT22;12635;50.852;5.676;2023-04-15T00:56:37;4.70;99.90
24470;DHT22;12635;50.852;5.676;2023-04-15T00:59:04;4.60;99.90
24470;DHT22;12635;50.852;5.676;2023-04-15T01:01:32;4.60;99.90
24470;DHT22;12635;50.852;5.676;2023-04-15T01:03:59;4.60;99.90
24470;DHT22;12635;50.852;5.676;2023-04-15T01:06:26;4.60;99.90
24470;DHT22;12635;50.852;5.676;2023-04-15T01:08:55;4.70;99.90
24470;DHT22;12635;50.852;5.676;2023-04-15T01:11:23;4.80;99.90
24470;DHT22;12635;50.852;5.676;2023-04-15T01:13:50;4.90;99.90
24470;DHT22;12635;50.852;5.676;2023-04-15T01:16:17;4.90;99.90
24470;DHT22;12635;50.852;5.676;2023-04-15T01:18:44;4.90;99.90
24470;DHT22;12635;50.852;5.676;2023-04-15T01:21:11;4.80;99.90
24470;DHT22;12635;50.852;5.676;2023-04-15T01:23:38;4.80;99.90
24470;DHT22;12635;50.852;5.676;2023-04-15T01:26:07;4.80;99.90
24470;DHT22;12635;50.852;5.676;2023-04-15T01:28:34;5.00;99.90
24470;DHT22;12635;50.852;5.676;2023-04-15T01:31:08;5.10;99.90
24470;DHT22;12635;50.852;5.676;2023-04-15T01:33:36;5.30;99.90
24470;DHT22;12635;50.852;5.676;2023-04-15T01:36:03;5.50;99.90
24470;DHT22;12635;50.852;5.676;2023-04-15T01:38:30;5.70;99.90
24470;DHT22;12635;50.852;5.676;2023-04-15T01:40:57;5.90;99.90
24470;DHT22;12635;50.852;5.676;2023-04-15T01:43:26;6.10;99.90
24470;DHT22;12635;50.852;5.676;2023-04-15T01:45:53;6.10;99.90
24470;DHT22;12635;50.852;5.676;2023-04-15T01:48:21;6.40;99.90
24470;DHT22;12635;50.852;5.676;2023-04-15T01:50:48;6.40;99.90
24470;DHT22;12635;50.852;5.676;2023-04-15T01:53:14;6.40;99.90
24470;DHT22;12635;50.852;5.676;2023-04-15T01:55:41;6.40;99.90
24470;DHT22;12635;50.852;5.676;2023-04-15T01:58:08;6.40;99.90
24470;DHT22;12635;50.852;5.676;2023-04-15T02:00:36;6.30;99.90
24470;DHT22;12635;50.852;5.676;2023-04-15T02:03:03;6.40;99.90
24470;DHT22;12635;50.852;5.676;2023-04-15T02:05:30;6.40;99.90
24470;DHT22;12635;50.852;5.676;2023-04-15T02:07:58;6.40;99.90
24470;DHT22;12635;50.852;5.676;2023-04-15T02:10:25;6.40;99.90
24470;DHT22;12635;50.852;5.676;2023-04-15T02:12:51;6.30;99.90
24470;DHT22;12635;50.852;5.676;2023-04-15T02:15:18;6.30;99.90
24470;DHT22;12635;50.852;5.676;2023-04-15T02:17:47;6.20;99.90
24470;DHT22;12635;50.852;5.676;2023-04-15T02:20:15;6.20;99.90
24470;DHT22;12635;50.852;5.676;2023-04-15T02:22:42;6.10;99.90
24470;DHT22;12635;50.852;5.676;2023-04-15T02:25:09;6.20;99.90
24470;DHT22;12635;50.852;5.676;2023-04-15T02:27:36;6.10;99.90
24470;DHT22;12635;50.852;5.676;2023-04-15T02:30:03;6.20;99.90
24470;DHT22;12635;50.852;5.676;2023-04-15T02:32:31;6.30;99.90
24470;DHT22;12635;50.852;5.676;2023-04-15T02:35:02;6.30;99.90
24470;DHT22;12635;50.852;5.676;2023-04-15T02:37:30;6.20;99.90
24470;DHT22;12635;50.852;5.676;2023-04-15T02:40:00;6.20;99.90
24470;DHT22;12635;50.852;5.676;2023-04-15T02:42:27;6.20;99.90
24470;DHT22;12635;50.852;5.676;2023-04-15T02:44:54;6.20;99.90
24470;DHT22;12635;50.852;5.676;2023-04-15T02:47:22;6.20;99.90
24470;DHT22;12635;50.852;5.676;2023-04-15T02:49:49;6.30;99.90
24470;DHT22;12635;50.852;5.676;2023-04-15T02:52:17;6.20;99.90
24470;DHT22;12635;50.852;5.676;2023-04-15T02:54:44;6.10;99.90
24470;DHT22;12635;50.852;5.676;2023-04-15T02:57:11;6.00;99.90
24470;DHT22;12635;50.852;5.676;2023-04-15T02:59:38;6.00;99.90
24470;DHT22;12635;50.852;5.676;2023-04-15T03:02:05;6.00;99.90
24470;DHT22;12635;50.852;5.676;2023-04-15T03:04:32;6.00;99.90
24470;DHT22;12635;50.852;5.676;2023-04-15T03:07:00;6.00;99.90
24470;DHT22;12635;50.852;5.676;2023-04-15T03:09:28;6.00;99.90
24470;DHT22;12635;50.852;5.676;2023-04-15T03:11:55;6.10;99.90
24470;DHT22;12635;50.852;5.676;2023-04-15T03:14:22;6.10;99.90
24470;DHT22;12635;50.852;5.676;2023-04-15T03:16:49;6.10;99.90
24470;DHT22;12635;50.852;5.676;2023-04-15T03:19:16;6.00;99.90
24470;DHT22;12635;50.852;5.676;2023-04-15T03:21:43;6.10;99.90
24470;DHT22;12635;50.852;5.676;2023-04-15T03:24:10;6.10;99.90
24470;DHT22;12635;50.852;5.676;2023-04-15T03:26:38;6.10;99.90
24470;DHT22;12635;50.852;5.676;2023-04-15T03:29:05;6.00;99.90
24470;DHT22;12635;50.852;5.676;2023-04-15T03:31:32;6.00;99.90
24470;DHT22;12635;50.852;5.676;2023-04-15T03:33:59;6.00;99.90
24470;DHT22;12635;50.852;5.676;2023-04-15T03:36:25;6.00;99.90
24470;DHT22;12635;50.852;5.676;2023-04-15T03:38:52;6.00;99.90
24470;DHT22;12635;50.852;5.676;2023-04-15T03:41:20;5.90;99.90
24470;DHT22;12635;50.852;5.676;2023-04-15T03:43:48;5.90;99.90
24470;DHT22;12635;50.852;5.676;2023-04-15T03:46:16;5.80;99.90
24470;DHT22;12635;50.852;5.676;2023-04-15T03:48:43;5.70;99.90
24470;DHT22;12635;50.852;5.676;2023-04-15T03:51:10;5.70;99.90
24470;DHT22;12635;50.852;5.676;2023-04-15T03:53:37;5.70;99.90
24470;DHT22;12635;50.852;5.676;2023-04-15T03:56:04;5.70;99.90
24470;DHT22;12635;50.852;5.676;2023-04-15T03:58:31;5.70;99.90
24470;DHT22;12635;50.852;5.676;2023-04-15T04:00:59;5.70;99.90
24470;DHT22;12635;50.852;5.676;2023-04-15T04:03:26;5.70;99.90
24470;DHT22;12635;50.852;5.676;2023-04-15T04:05:53;5.70;99.90
24470;DHT22;12635;50.852;5.676;2023-04-15T04:08:20;5.70;99.90
24470;DHT22;12635;50.852;5.676;2023-04-15T04:10:47;5.70;99.90
24470;DHT22;12635;50.852;5.676;2023-04-15T04:13:13;5.80;99.90
24470;DHT22;12635;50.852;5.676;2023-04-15T04:15:40;5.80;99.90
24470;DHT22;12635;50.852;5.676;2023-04-15T04:18:09;5.90;99.90
24470;DHT22;12635;50.852;5.676;2023-04-15T04:20:35;5.80;99.90
24470;DHT22;12635;50.852;5.676;2023-04-15T04:23:02;5.70;99.90
24470;DHT22;12635;50.852;5.676;2023-04-15T04:25:29;5.70;99.90
24470;DHT22;12635;50.852;5.676;2023-04-15T04:27:56;5.60;99.90
24470;DHT22;12635;50.852;5.676;2023-04-15T04:30:23;5.60;99.90
24470;DHT22;12635;50.852;5.676;2023-04-15T04:32:50;5.60;99.90
24470;DHT22;12635;50.852;5.676;2023-04-15T04:35:18;5.70;99.90
24470;DHT22;12635;50.852;5.676;2023-04-15T04:37:45;5.70;99.90
24470;DHT22;12635;50.852;5.676;2023-04-15T04:40:12;5.80;99.90
24470;DHT22;12635;50.852;5.676;2023-04-15T04:42:39;5.90;99.90
24470;DHT22;12635;50.852;5.676;2023-04-15T04:45:06;5.90;99.90
24470;DHT22;12635;50.852;5.676;2023-04-15T04:47:33;6.00;99.90
24470;DHT22;12635;50.852;5.676;2023-04-15T04:50:00;6.00;99.90
24470;DHT22;12635;50.852;5.676;2023-04-15T04:52:28;6.00;99.90
24470;DHT22;12635;50.852;5.676;2023-04-15T04:54:55;6.00;99.90
24470;DHT22;12635;50.852;5.676;2023-04-15T04:57:22;6.00;99.90
24470;DHT22;12635;50.852;5.676;2023-04-15T04:59:49;6.00;99.90
24470;DHT22;12635;50.852;5.676;2023-04-15T05:02:16;6.00;99.90
24470;DHT22;12635;50.852;5.676;2023-04-15T05:04:42;6.00;99.90
24470;DHT22;12635;50.852;5.676;2023-04-15T05:07:09;6.10;99.90
24470;DHT22;12635;50.852;5.676;2023-04-15T05:09:38;6.10;99.90
24470;DHT22;12635;50.852;5.676;2023-04-15T05:12:05;6.20;99.90
24470;DHT22;12635;50.852;5.676;2023-04-15T05:14:33;6.30;99.90
24470;DHT22;12635;50.852;5.676;2023-04-15T05:17:00;6.30;99.90
24470;DHT22;12635;50.852;5.676;2023-04-15T05:19:27;6.40;99.90
24470;DHT22;12635;50.852;5.676;2023-04-15T05:21:53;6.40;99.90
24470;DHT22;12635;50.852;5.676;2023-04-15T05:24:20;6.40;99.90
24470;DHT22;12635;50.852;5.676;2023-04-15T05:26:49;6.40;99.90
24470;DHT22;12635;50.852;5.676;2023-04-15T05:29:15;6.40;99.90
24470;DHT22;12635;50.852;5.676;2023-04-15T05:31:42;6.40;99.90
24470;DHT22;12635;50.852;5.676;2023-04-15T05:34:09;6.50;99.90
24470;DHT22;12635;50.852;5.676;2023-04-15T05:36:37;6.50;99.90
24470;DHT22;12635;50.852;5.676;2023-04-15T05:39:03;6.60;99.90
24470;DHT22;12635;50.852;5.676;2023-04-15T05:41:30;6.60;99.90
24470;DHT22;12635;50.852;5.676;2023-04-15T05:43:58;6.60;99.90
24470;DHT22;12635;50.852;5.676;2023-04-15T05:46:25;6.70;99.90
24470;DHT22;12635;50.852;5.676;2023-04-15T05:48:52;6.70;99.90
24470;DHT22;12635;50.852;5.676;2023-04-15T05:51:19;6.80;99.90
24470;DHT22;12635;50.852;5.676;2023-04-15T05:53:46;6.90;99.90
24470;DHT22;12635;50.852;5.676;2023-04-15T05:56:13;7.00;99.90
24470;DHT22;12635;50.852;5.676;2023-04-15T05:58:40;7.10;99.90
24470;DHT22;12635;50.852;5.676;2023-04-15T06:01:08;7.40;99.90
24470;DHT22;12635;50.852;5.676;2023-04-15T06:03:35;7.60;99.90
24470;DHT22;12635;50.852;5.676;2023-04-15T06:06:02;7.70;99.90
24470;DHT22;12635;50.852;5.676;2023-04-15T06:08:29;7.80;99.90
24470;DHT22;12635;50.852;5.676;2023-04-15T06:10:57;8.00;99.90
24470;DHT22;12635;50.852;5.676;2023-04-15T06:13:24;8.00;99.90
24470;DHT22;12635;50.852;5.676;2023-04-15T06:15:51;7.80;99.90
24470;DHT22;12635;50.852;5.676;2023-04-15T06:18:20;8.00;99.90
24470;DHT22;12635;50.852;5.676;2023-04-15T06:20:46;8.00;99.90
24470;DHT22;12635;50.852;5.676;2023-04-15T06:23:13;8.10;99.90
24470;DHT22;12635;50.852;5.676;2023-04-15T06:25:40;8.20;99.90
24470;DHT22;12635;50.852;5.676;2023-04-15T06:28:07;8.20;99.90
24470;DHT22;12635;50.852;5.676;2023-04-15T06:30:34;8.50;99.90
24470;DHT22;12635;50.852;5.676;2023-04-15T06:33:01;8.50;99.90
24470;DHT22;12635;50.852;5.676;2023-04-15T06:35:31;8.70;99.90
24470;DHT22;12635;50.852;5.676;2023-04-15T06:37:58;9.10;99.90
24470;DHT22;12635;50.852;5.676;2023-04-15T06:40:25;9.70;99.90
24470;DHT22;12635;50.852;5.676;2023-04-15T06:42:52;10.50;99.90
24470;DHT22;12635;50.852;5.676;2023-04-15T06:45:19;10.50;99.90
24470;DHT22;12635;50.852;5.676;2023-04-15T06:47:46;11.00;99.90
24470;DHT22;12635;50.852;5.676;2023-04-15T06:50:12;10.40;99.90
24470;DHT22;12635;50.852;5.676;2023-04-15T06:52:41;10.20;99.90
24470;DHT22;12635;50.852;5.676;2023-04-15T06:55:08;9.90;99.90
24470;DHT22;12635;50.852;5.676;2023-04-15T06:57:34;10.20;99.90
24470;DHT22;12635;50.852;5.676;2023-04-15T07:00:02;10.00;99.90
24470;DHT22;12635;50.852;5.676;2023-04-15T07:02:30;9.90;99.90
24470;DHT22;12635;50.852;5.676;2023-04-15T07:04:56;10.20;99.90
24470;DHT22;12635;50.852;5.676;2023-04-15T07:07:23;10.80;99.90
24470;DHT22;12635;50.852;5.676;2023-04-15T07:09:52;10.10;99.90
24470;DHT22;12635;50.852;5.676;2023-04-15T07:12:19;10.00;99.90
24470;DHT22;12635;50.852;5.676;2023-04-15T07:14:46;10.30;99.90
24470;DHT22;12635;50.852;5.676;2023-04-15T07:17:13;10.60;99.90
24470;DHT22;12635;50.852;5.676;2023-04-15T07:19:40;10.40;99.90
24470;DHT22;12635;50.852;5.676;2023-04-15T07:22:07;11.00;99.90
24470;DHT22;12635;50.852;5.676;2023-04-15T07:24:34;11.20;99.90
24470;DHT22;12635;50.852;5.676;2023-04-15T07:27:02;11.10;99.90
24470;DHT22;12635;50.852;5.676;2023-04-15T07:29:29;11.30;99.90
24470;DHT22;12635;50.852;5.676;2023-04-15T07:31:56;12.30;99.90
24470;DHT22;12635;50.852;5.676;2023-04-15T07:34:23;12.70;99.90
24470;DHT22;12635;50.852;5.676;2023-04-15T07:36:50;13.50;99.90
24470;DHT22;12635;50.852;5.676;2023-04-15T07:39:17;14.00;99.90
24470;DHT22;12635;50.852;5.676;2023-04-15T07:41:43;13.00;99.90
24470;DHT22;12635;50.852;5.676;2023-04-15T07:44:12;12.40;99.90
24470;DHT22;12635;50.852;5.676;2023-04-15T07:46:39;12.30;99.90
24470;DHT22;12635;50.852;5.676;2023-04-15T07:49:06;12.20;99.90
24470;DHT22;12635;50.852;5.676;2023-04-15T07:51:33;12.20;99.90
24470;DHT22;12635;50.852;5.676;2023-04-15T07:53:59;13.50;99.90
24470;DHT22;12635;50.852;5.676;2023-04-15T07:56:27;13.40;99.90
24470;DHT22;12635;50.852;5.676;2023-04-15T07:58:54;13.20;99.90
24470;DHT22;12635;50.852;5.676;2023-04-15T08:01:22;14.00;99.90
24470;DHT22;12635;50.852;5.676;2023-04-15T08:03:49;14.00;99.90
24470;DHT22;12635;50.852;5.676;2023-04-15T08:06:16;14.60;99.90
24470;DHT22;12635;50.852;5.676;2023-04-15T08:08:43;14.80;99.90
24470;DHT22;12635;50.852;5.676;2023-04-15T08:11:11;13.80;99.90
24470;DHT22;12635;50.852;5.676;2023-04-15T08:13:38;12.80;99.90
24470;DHT22;12635;50.852;5.676;2023-04-15T08:18:48;14.10;99.90
24470;DHT22;12635;50.852;5.676;2023-04-15T08:21:16;13.90;99.90
24470;DHT22;12635;50.852;5.676;2023-04-15T08:23:43;13.40;99.90
24470;DHT22;12635;50.852;5.676;2023-04-15T08:26:10;15.00;99.90
24470;DHT22;12635;50.852;5.676;2023-04-15T08:28:38;14.20;99.90
24470;DHT22;12635;50.852;5.676;2023-04-15T08:31:05;14.70;99.90
24470;DHT22;12635;50.852;5.676;2023-04-15T08:33:32;15.10;99.90
24470;DHT22;12635;50.852;5.676;2023-04-15T08:36:00;15.40;99.90
24470;DHT22;12635;50.852;5.676;2023-04-15T08:38:27;15.70;99.90
24470;DHT22;12635;50.852;5.676;2023-04-15T08:40:54;15.60;99.90
24470;DHT22;12635;50.852;5.676;2023-04-15T08:43:23;16.20;99.90
24470;DHT22;12635;50.852;5.676;2023-04-15T08:45:53;15.00;99.90
24470;DHT22;12635;50.852;5.676;2023-04-15T08:48:23;14.80;99.90
24470;DHT22;12635;50.852;5.676;2023-04-15T08:50:51;15.70;99.90
24470;DHT22;12635;50.852;5.676;2023-04-15T08:53:19;16.20;99.90
24470;DHT22;12635;50.852;5.676;2023-04-15T08:55:49;16.30;99.90
24470;DHT22;12635;50.852;5.676;2023-04-15T08:58:17;15.30;99.90
24470;DHT22;12635;50.852;5.676;2023-04-15T09:00:44;14.60;99.90
24470;DHT22;12635;50.852;5.676;2023-04-15T09:03:13;14.80;99.90
24470;DHT22;12635;50.852;5.676;2023-04-15T09:05:40;15.10;99.90
24470;DHT22;12635;50.852;5.676;2023-04-15T09:08:07;15.60;99.90
24470;DHT22;12635;50.852;5.676;2023-04-15T09:10:35;15.00;99.90
24470;DHT22;12635;50.852;5.676;2023-04-15T09:13:02;15.80;99.90
24470;DHT22;12635;50.852;5.676;2023-04-15T09:15:29;15.80;99.90
24470;DHT22;12635;50.852;5.676;2023-04-15T09:17:58;15.30;99.90
24470;DHT22;12635;50.852;5.676;2023-04-15T09:20:25;15.10;99.90
24470;DHT22;12635;50.852;5.676;2023-04-15T09:22:52;16.30;99.90
24470;DHT22;12635;50.852;5.676;2023-04-15T09:25:25;16.30;99.90
24470;DHT22;12635;50.852;5.676;2023-04-15T09:27:54;17.10;99.90
24470;DHT22;12635;50.852;5.676;2023-04-15T09:30:22;17.80;99.90
24470;DHT22;12635;50.852;5.676;2023-04-15T09:32:49;18.30;99.90
24470;DHT22;12635;50.852;5.676;2023-04-15T09:35:16;18.00;99.90
24470;DHT22;12635;50.852;5.676;2023-04-15T09:37:43;15.90;99.90
24470;DHT22;12635;50.852;5.676;2023-04-15T09:40:11;15.90;99.90
24470;DHT22;12635;50.852;5.676;2023-04-15T09:42:45;17.10;99.90
24470;DHT22;12635;50.852;5.676;2023-04-15T09:45:21;17.60;99.90
24470;DHT22;12635;50.852;5.676;2023-04-15T09:47:48;18.00;99.90
24470;DHT22;12635;50.852;5.676;2023-04-15T09:50:17;18.20;99.90
24470;DHT22;12635;50.852;5.676;2023-04-15T09:52:44;17.80;99.90
24470;DHT22;12635;50.852;5.676;2023-04-15T09:55:12;16.40;99.90
24470;DHT22;12635;50.852;5.676;2023-04-15T09:57:39;16.70;99.90
24470;DHT22;12635;50.852;5.676;2023-04-15T10:00:07;17.10;99.90
24470;DHT22;12635;50.852;5.676;2023-04-15T10:02:37;16.30;99.90
24470;DHT22;12635;50.852;5.676;2023-04-15T10:05:05;14.40;99.90
24470;DHT22;12635;50.852;5.676;2023-04-15T10:07:33;14.00;99.90
24470;DHT22;12635;50.852;5.676;2023-04-15T10:09:59;13.80;99.90
24470;DHT22;12635;50.852;5.676;2023-04-15T10:12:28;13.90;99.90
24470;DHT22;12635;50.852;5.676;2023-04-15T10:14:55;14.00;99.90
24470;DHT22;12635;50.852;5.676;2023-04-15T10:17:24;14.00;99.90
24470;DHT22;12635;50.852;5.676;2023-04-15T10:19:54;14.20;99.90
24470;DHT22;12635;50.852;5.676;2023-04-15T10:22:21;14.40;99.90
24470;DHT22;12635;50.852;5.676;2023-04-15T10:24:48;13.80;99.90
24470;DHT22;12635;50.852;5.676;2023-04-15T10:27:16;14.00;99.90
24470;DHT22;12635;50.852;5.676;2023-04-15T10:29:43;14.80;99.90
24470;DHT22;12635;50.852;5.676;2023-04-15T10:32:10;14.70;99.90
24470;DHT22;12635;50.852;5.676;2023-04-15T10:34:37;14.00;99.90
24470;DHT22;12635;50.852;5.676;2023-04-15T10:37:08;14.20;99.90
24470;DHT22;12635;50.852;5.676;2023-04-15T10:39:38;14.80;99.90
24470;DHT22;12635;50.852;5.676;2023-04-15T10:42:06;14.60;99.90
24470;DHT22;12635;50.852;5.676;2023-04-15T10:44:34;14.40;99.90
24470;DHT22;12635;50.852;5.676;2023-04-15T10:47:09;14.90;99.90
24470;DHT22;12635;50.852;5.676;2023-04-15T10:49:42;14.60;99.90
24470;DHT22;12635;50.852;5.676;2023-04-15T10:52:10;14.50;99.90
24470;DHT22;12635;50.852;5.676;2023-04-15T10:54:38;14.90;99.90
24470;DHT22;12635;50.852;5.676;2023-04-15T10:57:08;15.30;99.90
24470;DHT22;12635;50.852;5.676;2023-04-15T11:02:23;15.80;99.90
24470;DHT22;12635;50.852;5.676;2023-04-15T11:05:03;15.10;99.90
24470;DHT22;12635;50.852;5.676;2023-04-15T11:07:36;16.10;99.90
24470;DHT22;12635;50.852;5.676;2023-04-15T11:10:05;16.10;99.90
24470;DHT22;12635;50.852;5.676;2023-04-15T11:12:51;15.30;99.90
24470;DHT22;12635;50.852;5.676;2023-04-15T11:15:24;15.00;99.90
24470;DHT22;12635;50.852;5.676;2023-04-15T11:17:52;14.70;99.90
24470;DHT22;12635;50.852;5.676;2023-04-15T11:20:19;14.40;99.90
24470;DHT22;12635;50.852;5.676;2023-04-15T11:22:48;14.80;99.90
24470;DHT22;12635;50.852;5.676;2023-04-15T11:25:22;15.60;99.90
24470;DHT22;12635;50.852;5.676;2023-04-15T11:27:49;15.50;99.90
24470;DHT22;12635;50.852;5.676;2023-04-15T11:30:17;15.10;99.90
24470;DHT22;12635;50.852;5.676;2023-04-15T11:32:44;15.40;99.90
24470;DHT22;12635;50.852;5.676;2023-04-15T11:35:11;15.90;99.90
24470;DHT22;12635;50.852;5.676;2023-04-15T11:37:38;15.80;99.90
24470;DHT22;12635;50.852;5.676;2023-04-15T11:40:07;15.40;99.90
24470;DHT22;12635;50.852;5.676;2023-04-15T11:42:34;15.50;99.90
24470;DHT22;12635;50.852;5.676;2023-04-15T11:45:08;15.00;99.90
24470;DHT22;12635;50.852;5.676;2023-04-15T11:47:35;15.00;99.90
24470;DHT22;12635;50.852;5.676;2023-04-15T11:50:17;16.30;99.90
24470;DHT22;12635;50.852;5.676;2023-04-15T11:52:51;15.50;99.90
24470;DHT22;12635;50.852;5.676;2023-04-15T11:55:19;16.20;99.90
24470;DHT22;12635;50.852;5.676;2023-04-15T11:57:46;16.60;99.90
24470;DHT22;12635;50.852;5.676;2023-04-15T12:00:13;16.80;99.90
24470;DHT22;12635;50.852;5.676;2023-04-15T12:02:41;16.00;99.90
24470;DHT22;12635;50.852;5.676;2023-04-15T12:05:09;16.50;99.90
24470;DHT22;12635;50.852;5.676;2023-04-15T12:10:20;16.30;99.90
24470;DHT22;12635;50.852;5.676;2023-04-15T12:12:50;15.90;99.90
24470;DHT22;12635;50.852;5.676;2023-04-15T12:15:20;17.40;99.90
24470;DHT22;12635;50.852;5.676;2023-04-15T12:17:47;17.90;99.90
24470;DHT22;12635;50.852;5.676;2023-04-15T12:20:19;16.40;99.90
24470;DHT22;12635;50.852;5.676;2023-04-15T12:22:46;15.90;99.90
24470;DHT22;12635;50.852;5.676;2023-04-15T12:25:13;15.80;99.90
24470;DHT22;12635;50.852;5.676;2023-04-15T12:27:41;15.80;99.90
24470;DHT22;12635;50.852;5.676;2023-04-15T12:30:16;15.50;99.90
24470;DHT22;12635;50.852;5.676;2023-04-15T12:32:43;16.10;99.90
24470;DHT22;12635;50.852;5.676;2023-04-15T12:35:12;16.20;99.90
24470;DHT22;12635;50.852;5.676;2023-04-15T12:37:39;16.30;99.90
24470;DHT22;12635;50.852;5.676;2023-04-15T12:40:07;14.80;99.90
24470;DHT22;12635;50.852;5.676;2023-04-15T12:42:34;14.60;99.90
24470;DHT22;12635;50.852;5.676;2023-04-15T12:45:02;14.70;99.90
24470;DHT22;12635;50.852;5.676;2023-04-15T12:47:29;15.50;99.90
24470;DHT22;12635;50.852;5.676;2023-04-15T12:49:56;15.50;99.90
24470;DHT22;12635;50.852;5.676;2023-04-15T12:52:23;15.60;99.90
24470;DHT22;12635;50.852;5.676;2023-04-15T12:54:50;15.80;99.90
24470;DHT22;12635;50.852;5.676;2023-04-15T12:57:16;16.50;99.90
24470;DHT22;12635;50.852;5.676;2023-04-15T12:59:43;17.30;99.90
24470;DHT22;12635;50.852;5.676;2023-04-15T13:02:11;16.00;99.90
24470;DHT22;12635;50.852;5.676;2023-04-15T13:04:38;15.90;99.90
24470;DHT22;12635;50.852;5.676;2023-04-15T13:07:05;16.10;99.90
24470;DHT22;12635;50.852;5.676;2023-04-15T13:09:32;17.10;99.90
24470;DHT22;12635;50.852;5.676;2023-04-15T13:11:59;17.30;99.90
24470;DHT22;12635;50.852;5.676;2023-04-15T13:14:27;16.30;99.90
24470;DHT22;12635;50.852;5.676;2023-04-15T13:16:54;16.20;99.90
24470;DHT22;12635;50.852;5.676;2023-04-15T13:19:22;15.60;99.90
24470;DHT22;12635;50.852;5.676;2023-04-15T13:21:49;15.90;99.90
24470;DHT22;12635;50.852;5.676;2023-04-15T13:24:16;15.20;99.90
24470;DHT22;12635;50.852;5.676;2023-04-15T13:26:43;15.30;99.90
24470;DHT22;12635;50.852;5.676;2023-04-15T13:29:10;16.00;99.90
24470;DHT22;12635;50.852;5.676;2023-04-15T13:31:38;16.10;99.90
24470;DHT22;12635;50.852;5.676;2023-04-15T13:34:05;15.90;99.90
24470;DHT22;12635;50.852;5.676;2023-04-15T13:36:33;16.50;99.90
24470;DHT22;12635;50.852;5.676;2023-04-15T13:39:00;16.50;99.90
24470;DHT22;12635;50.852;5.676;2023-04-15T13:41:27;16.30;99.90
24470;DHT22;12635;50.852;5.676;2023-04-15T13:43:54;16.50;99.90
24470;DHT22;12635;50.852;5.676;2023-04-15T13:46:22;16.60;99.90
24470;DHT22;12635;50.852;5.676;2023-04-15T13:48:50;16.90;99.90
24470;DHT22;12635;50.852;5.676;2023-04-15T13:51:17;15.70;99.90
24470;DHT22;12635;50.852;5.676;2023-04-15T13:53:45;14.50;99.90
24470;DHT22;12635;50.852;5.676;2023-04-15T13:56:12;14.50;99.90
24470;DHT22;12635;50.852;5.676;2023-04-15T13:58:39;14.40;99.90
24470;DHT22;12635;50.852;5.676;2023-04-15T14:01:06;14.60;99.90
24470;DHT22;12635;50.852;5.676;2023-04-15T14:03:33;15.40;99.90
24470;DHT22;12635;50.852;5.676;2023-04-15T14:06:00;15.90;99.90
24470;DHT22;12635;50.852;5.676;2023-04-15T14:08:27;17.00;99.90
24470;DHT22;12635;50.852;5.676;2023-04-15T14:10:55;17.30;99.90
24470;DHT22;12635;50.852;5.676;2023-04-15T14:13:22;18.10;99.90
24470;DHT22;12635;50.852;5.676;2023-04-15T14:15:48;17.40;99.90
24470;DHT22;12635;50.852;5.676;2023-04-15T14:18:15;17.30;99.90
24470;DHT22;12635;50.852;5.676;2023-04-15T14:20:42;16.90;99.90
24470;DHT22;12635;50.852;5.676;2023-04-15T14:23:09;15.70;99.90
24470;DHT22;12635;50.852;5.676;2023-04-15T14:25:36;15.10;99.90
24470;DHT22;12635;50.852;5.676;2023-04-15T14:28:05;14.90;99.90
24470;DHT22;12635;50.852;5.676;2023-04-15T14:30:32;14.80;99.90
24470;DHT22;12635;50.852;5.676;2023-04-15T14:32:59;14.50;99.90
24470;DHT22;12635;50.852;5.676;2023-04-15T14:35:26;14.70;99.90
24470;DHT22;12635;50.852;5.676;2023-04-15T14:37:53;15.20;99.90
24470;DHT22;12635;50.852;5.676;2023-04-15T14:40:20;14.60;99.90
24470;DHT22;12635;50.852;5.676;2023-04-15T14:42:47;15.10;99.90
24470;DHT22;12635;50.852;5.676;2023-04-15T14:45:15;15.70;99.90
24470;DHT22;12635;50.852;5.676;2023-04-15T14:47:42;14.90;99.90
24470;DHT22;12635;50.852;5.676;2023-04-15T14:50:09;14.70;99.90
24470;DHT22;12635;50.852;5.676;2023-04-15T14:52:36;15.50;99.90
24470;DHT22;12635;50.852;5.676;2023-04-15T14:55:04;16.00;99.90
24470;DHT22;12635;50.852;5.676;2023-04-15T14:57:31;15.40;99.90
24470;DHT22;12635;50.852;5.676;2023-04-15T14:59:58;14.80;99.90
24470;DHT22;12635;50.852;5.676;2023-04-15T15:02:26;14.30;99.90
24470;DHT22;12635;50.852;5.676;2023-04-15T15:04:53;14.30;99.90
24470;DHT22;12635;50.852;5.676;2023-04-15T15:07:21;14.20;99.90
24470;DHT22;12635;50.852;5.676;2023-04-15T15:09:48;13.90;99.90
24470;DHT22;12635;50.852;5.676;2023-04-15T15:12:15;14.00;99.90
24470;DHT22;12635;50.852;5.676;2023-04-15T15:14:42;13.90;99.90
24470;DHT22;12635;50.852;5.676;2023-04-15T15:17:09;13.80;99.90
24470;DHT22;12635;50.852;5.676;2023-04-15T15:19:37;13.70;99.90
24470;DHT22;12635;50.852;5.676;2023-04-15T15:22:04;13.70;99.90
24470;DHT22;12635;50.852;5.676;2023-04-15T15:24:31;14.50;99.90
24470;DHT22;12635;50.852;5.676;2023-04-15T15:26:58;15.10;99.90
24470;DHT22;12635;50.852;5.676;2023-04-15T15:29:25;16.30;99.90
24470;DHT22;12635;50.852;5.676;2023-04-15T15:31:51;16.50;99.90
24470;DHT22;12635;50.852;5.676;2023-04-15T15:34:18;16.10;99.90
24470;DHT22;12635;50.852;5.676;2023-04-15T15:36:46;16.20;99.90
24470;DHT22;12635;50.852;5.676;2023-04-15T15:39:13;16.10;99.90
24470;DHT22;12635;50.852;5.676;2023-04-15T15:41:41;16.20;99.90
24470;DHT22;12635;50.852;5.676;2023-04-15T15:44:08;16.60;99.90
24470;DHT22;12635;50.852;5.676;2023-04-15T15:46:35;16.00;99.90